powered by Meteolive.it
Dati meteo   Attuali  Passati Ogni 3 ore 7 Giorni 15 Giorni Avvisi Meteo Mappe meteo
Milano / Linate, Italy
Alba: 7:17 AM UTC1
Tramonto: 5:55 PM UTC1
 Lat: 45.42N, Lon: 9.27E
ICAO Usato: LIML
Condizioni Meteo Attuali Aggiornate: 21.02.2017 alle 17:20 LT
Quasi Sereno
Quasi Sereno
N/D
N/D
Temp: 15°C
Umidita': 55%
Direz/Vel. Vento: SSW 10 KTS
Pressione: 1016 hPa
Punto di rugiada: 6°C
Temperatura percepita: 15°C
Visibilitą: N/D
Temperatura percepita in
presenza di vento (Wind Chill)
:
14°C
T. max (ultime 24 ore): 15°C
T. min (ultime 24 ore): 3°C


METAR ORIGINALE
LIML 211520Z 26010KT 220V300 CAVOK 15/06 Q1016 NOSIG